»·PEaware :: SWA2508 KRNO-KSAN

SWA2508 :: KRNO-KSAN

FLIGHT INFORMATION

Flight Status: Arrived
Operator:
Southwest Airlines
More flights by this operator :: More flights under this callsign
Pilot: Ben F. (2808)
Aircraft: BOEING 737-300
(B733)
More flights by this aircraft type
Origin: KRNO Reno/Tahoe Intl
United States
Destination: KSAN San Diego Intl-Lindbergh
United States
More flights between these airports :: More routes between these airports
Route: +ZEFFR6 DARBI EHF HUULK COMIX2
File this flight plan on PilotEdge
Remarks:
Altitude:
(Current/Filed)
35,000ft
Speed:
(Current/Filed)
437kts
Departed: 13-Oct-18 07:26 AM
Arrived: 13-Oct-18 08:38 AM
Distance/Time
Traveled:
425nm/1:12
Distance/Time
To Go:
Arrived

Flight Plot

Page will automatically refresh every two minutes.

Flight plan parsing failed; only flown route is shown


Map Options




Map Legend


Flown Route
Filed Route
Departure Airport
Arrival Airport
Navaid (VOR, NDB)
Fix

Horizontal Profiles

Position Reports

Time Latitude Longitude Heading Altitude Ground
Speed
13-Oct-18 07:07 39.504851 -119.772350 270 4422ft 0kts
13-Oct-18 07:08 39.504851 -119.772350 270 4422ft 0kts
13-Oct-18 07:09 39.504851 -119.772350 270 4422ft 0kts
13-Oct-18 07:10 39.504851 -119.772350 270 4422ft 0kts
13-Oct-18 07:11 39.504851 -119.772350 270 4422ft 0kts
13-Oct-18 07:12 39.504851 -119.772350 270 4422ft 0kts
13-Oct-18 07:13 39.504851 -119.772350 270 4422ft 0kts
13-Oct-18 07:14 39.504851 -119.772350 270 4422ft 0kts
13-Oct-18 07:15 39.504851 -119.772350 270 4422ft 0kts
13-Oct-18 07:16 39.504851 -119.772350 270 4422ft 0kts
13-Oct-18 07:17 39.504851 -119.772350 270 4422ft 0kts
13-Oct-18 07:18 39.504851 -119.772350 270 4422ft 0kts
13-Oct-18 07:19 39.504851 -119.772350 270 4422ft 0kts
13-Oct-18 07:20 39.504851 -119.772350 270 4422ft 0kts
13-Oct-18 07:21 39.504849 -119.772230 270 4422ft 2kts
13-Oct-18 07:22 39.504686 -119.771528 336 4422ft 2kts
13-Oct-18 07:23 39.504509 -119.771494 359 4422ft 0kts
13-Oct-18 07:24 39.504531 -119.771494 359 4422ft 0kts
13-Oct-18 07:25 39.505933 -119.771510 0 4422ft 12kts
13-Oct-18 07:26 39.511069 -119.771475 359 4422ft 20kts
13-Oct-18 07:27 39.513735 -119.770348 90 4422ft 0kts
13-Oct-18 07:28 39.506969 -119.769227 180 4422ft 100kts
13-Oct-18 07:29 39.459941 -119.768013 175 5279ft 204kts
13-Oct-18 07:30 39.393313 -119.769662 179 6664ft 273kts
13-Oct-18 07:31 39.315479 -119.769643 177 9354ft 288kts
13-Oct-18 07:32 39.232715 -119.766462 177 11636ft 315kts
13-Oct-18 07:33 39.140756 -119.762977 177 13688ft 349kts
13-Oct-18 07:34 39.040334 -119.759204 177 15919ft 373kts
13-Oct-18 07:35 38.934476 -119.755205 178 18083ft 391kts
13-Oct-18 07:36 38.829529 -119.751265 178 20043ft 405kts
13-Oct-18 07:37 38.717787 -119.747058 178 21877ft 420kts
13-Oct-18 07:38 38.601582 -119.742701 178 23636ft 432kts
13-Oct-18 07:39 38.479985 -119.738159 178 25279ft 444kts
13-Oct-18 07:40 38.361186 -119.733735 177 26714ft 456kts
13-Oct-18 07:41 38.234220 -119.716959 167 28114ft 466kts
13-Oct-18 07:42 38.107614 -119.686848 168 29934ft 463kts
13-Oct-18 07:43 37.981088 -119.657389 167 31433ft 463kts
13-Oct-18 07:44 37.861461 -119.629666 167 32624ft 464kts
13-Oct-18 07:45 37.737550 -119.601063 168 34043ft 455kts
13-Oct-18 07:46 37.612900 -119.572332 168 34860ft 458kts
13-Oct-18 07:47 37.487456 -119.543639 168 35000ft 465kts
13-Oct-18 07:48 37.360545 -119.514639 168 34911ft 465kts
13-Oct-18 07:49 37.234120 -119.485808 168 34940ft 465kts
13-Oct-18 07:50 37.107644 -119.457065 168 34918ft 465kts
13-Oct-18 07:51 36.980595 -119.428286 167 34914ft 466kts
13-Oct-18 07:52 36.857867 -119.400624 167 34889ft 465kts
13-Oct-18 07:53 36.733395 -119.372663 167 34915ft 466kts
13-Oct-18 07:54 36.610742 -119.345105 167 34906ft 466kts
13-Oct-18 07:55 36.484526 -119.316653 167 34914ft 466kts
13-Oct-18 07:56 36.358328 -119.288542 167 34914ft 466kts
13-Oct-18 07:57 36.236109 -119.245351 161 34918ft 463kts
13-Oct-18 07:58 36.113090 -119.200513 161 34921ft 463kts
13-Oct-18 07:59 35.989952 -119.155861 161 34928ft 464kts
13-Oct-18 08:00 35.871547 -119.113102 161 34898ft 464kts
13-Oct-18 08:01 35.773268 -119.077767 161 34942ft 464kts
13-Oct-18 08:02 35.649996 -119.033474 161 34939ft 464kts
13-Oct-18 08:03 35.526908 -118.989385 161 34918ft 464kts
13-Oct-18 08:04 35.404265 -118.945600 160 34913ft 462kts
13-Oct-18 08:05 35.281550 -118.901923 160 34914ft 460kts
13-Oct-18 08:06 35.159308 -118.858553 160 34920ft 458kts
13-Oct-18 08:07 35.038230 -118.815767 160 34997ft 457kts
13-Oct-18 08:08 34.914923 -118.772370 166 35046ft 461kts
13-Oct-18 08:09 34.807302 -118.734670 166 34978ft 435kts
13-Oct-18 08:10 34.690385 -118.693772 166 35030ft 442kts
13-Oct-18 08:11 34.573047 -118.652815 166 35008ft 440kts
13-Oct-18 08:12 34.455744 -118.611997 166 34997ft 440kts
13-Oct-18 08:13 34.338915 -118.571461 166 34983ft 440kts
13-Oct-18 08:14 34.221856 -118.530962 166 34942ft 440kts
13-Oct-18 08:15 34.105441 -118.490805 166 34945ft 440kts
13-Oct-18 08:16 33.987946 -118.450706 166 34921ft 449kts
13-Oct-18 08:17 33.887290 -118.377431 131 34137ft 470kts
13-Oct-18 08:18 33.807550 -118.269287 135 31780ft 464kts
13-Oct-18 08:19 33.720761 -118.156024 133 29349ft 472kts
13-Oct-18 08:20 33.632683 -118.040356 132 26893ft 476kts
13-Oct-18 08:21 33.543994 -117.925122 135 24275ft 472kts
13-Oct-18 08:22 33.451774 -117.818530 135 21682ft 453kts
13-Oct-18 08:23 33.360716 -117.720288 136 19105ft 432kts
13-Oct-18 08:24 33.273781 -117.627429 136 16617ft 412kts
13-Oct-18 08:25 33.190130 -117.539159 136 14511ft 396kts
13-Oct-18 08:26 33.107857 -117.458878 143 12512ft 371kts
13-Oct-18 08:27 33.026696 -117.391361 143 10543ft 340kts
13-Oct-18 08:28 32.957856 -117.333553 144 9656ft 288kts
13-Oct-18 08:29 32.897071 -117.282642 144 8800ft 276kts
13-Oct-18 08:30 32.859016 -117.210481 111 7318ft 266kts
13-Oct-18 08:31 32.833509 -117.130830 111 5835ft 254kts
13-Oct-18 08:32 32.813316 -117.067311 111 4941ft 244kts
13-Oct-18 08:33 32.785152 -116.980752 111 4974ft 247kts
13-Oct-18 08:34 32.757594 -116.923835 155 4975ft 237kts
13-Oct-18 08:35 32.691654 -116.939312 235 3879ft 208kts
13-Oct-18 08:36 32.685970 -116.990289 279 3745ft 193kts
13-Oct-18 08:37 32.702273 -117.060949 285 3151ft 195kts
13-Oct-18 08:38 32.714400 -117.110711 285 1837ft 191kts
13-Oct-18 08:39 32.728432 -117.168330 285 299ft 161kts
13-Oct-18 08:40 32.733455 -117.194391 154 24ft 10kts
13-Oct-18 08:41 32.732554 -117.195469 310 24ft 1kts
13-Oct-18 08:42 32.732572 -117.195493 311 24ft 0kts
13-Oct-18 08:43 32.732572 -117.195493 311 24ft 0kts
13-Oct-18 08:44 32.732572 -117.195493 311 24ft 0kts
13-Oct-18 08:45 32.732572 -117.195493 311 24ft 0kts

Navigation Log

Ident Type
Flight plan parsing failed, navigation log unavailable